KTPF

Peter O Knight Airport

Tampa, Florida, USA
METAR KTPF 151855Z AUTO 19006KT 10SM CLR 24/14 A2996 RMK AO2
Observed Flight Rules
Feb-15 @ 18:55 UTC (13 minutes ago) Visual Flight Rules
Wind Visibility Clouds
190° at 6 knots 10 miles
  • Clear skies
Temperatures Readings
Current 24°C / 75°F
Dewpoint 14°C / 57°F
Humidity 54%
Altimeter 29.96" Hg
Pressure 1014.52 hPa
Elevation 3
METAR KTPF 151855Z AUTO 19006KT 10SM CLR 24/14 A2996 RMK AO2
Observed Flight Rules
Feb-15 @ 18:55 UTC
(13 minutes ago)
VFR
Wind Visibility
190° at 6 knots 10 miles
Clouds
  • Clear skies
Temperature Dewpoint
24°C / 75°F 14°C / 57°F
Humidity Altimeter Pressure
54% 29.96" Hg 1014.52 hPa